Time;durP1;ratioP1;P1;durP2;ratioP2;P2;SDS_P1;SDS_P2;PMS_P1;PMS_P2;Temp;Humidity;BMP_temperature;BMP_pressure;BME280_temperature;BME280_humidity;BME280_pressure;Samples;Min_cycle;Max_cycle;Signal;HPM_P1;HPM_P2
2022/05/24 00:00:56;;;;;;;7.83;4.40;;;;;;;17.45;80.64;98931.56;5063253;28;20177;-84
2022/05/24 00:03:21;;;;;;;7.60;4.90;;;;;;;17.39;81.61;98928.94;5063948;28;20161;-82
2022/05/24 00:05:48;;;;;;;9.60;5.00;;;;;;;17.05;82.12;98887.72;5060998;28;20610;-84
2022/05/24 00:08:14;;;;;;;6.73;4.60;;;;;;;17.35;82.22;98922.09;5064780;28;20179;-83
2022/05/24 00:10:39;;;;;;;7.20;4.50;;;;;;;17.41;81.58;98920.47;5078167;28;20244;-83
2022/05/24 00:13:08;;;;;;;6.13;4.40;;;;;;;17.52;80.78;98923.13;5080421;28;20549;-83
2022/05/24 00:15:34;;;;;;;7.47;4.47;;;;;;;17.03;80.39;98840.81;5081053;28;20212;-84
2022/05/24 00:18:04;;;;;;;6.43;4.90;;;;;;;17.37;80.05;98895.69;5085352;28;20218;-83
2022/05/24 00:20:37;;;;;;;8.03;4.90;;;;;;;16.48;80.09;98739.72;5072762;28;20165;-83
2022/05/24 00:23:03;;;;;;;8.00;4.93;;;;;;;17.32;80.09;98884.56;5092973;28;20168;-83
2022/05/24 00:25:31;;;;;;;7.10;4.90;;;;;;;17.41;81.04;98929.84;5088771;28;20297;-84
2022/05/24 00:27:56;;;;;;;6.70;4.97;;;;;;;16.77;81.77;98832.03;5093666;28;20169;-84
2022/05/24 00:30:22;;;;;;;8.00;4.73;;;;;;;16.93;82.43;98853.50;5072367;28;20173;-85
2022/05/24 00:32:48;;;;;;;6.50;4.70;;;;;;;17.17;82.80;98907.44;5081199;28;20600;-84
2022/05/24 00:35:14;;;;;;;7.07;5.00;;;;;;;17.39;81.81;98928.94;5074512;28;20200;-83
2022/05/24 00:37:41;;;;;;;7.90;4.67;;;;;;;17.19;81.26;98884.44;5057700;28;20247;-82
2022/05/24 00:40:10;;;;;;;7.03;4.87;;;;;;;17.51;80.28;98924.81;5070749;28;20261;-83
2022/05/24 00:42:38;;;;;;;7.10;4.93;;;;;;;17.62;79.66;98924.94;5077582;28;20167;-86
2022/05/24 00:45:13;;;;;;;9.63;5.70;;;;;;;17.38;78.47;98871.81;5077865;28;20609;-85
2022/05/24 00:47:41;;;;;;;7.80;5.43;;;;;;;17.16;79.01;98851.16;5077957;28;20216;-85
2022/05/24 00:50:19;;;;;;;10.13;5.37;;;;;;;17.13;78.94;98856.25;5060589;28;20192;-85
2022/05/24 00:52:56;;;;;;;10.53;5.30;;;;;;;17.50;79.94;98922.22;5040707;28;20169;-84
2022/05/24 00:55:22;;;;;;;7.63;5.17;;;;;;;16.83;80.41;98821.88;5070733;28;20199;-85
2022/05/24 00:57:53;;;;;;;10.37;5.43;;;;;;;17.33;80.99;98916.94;5070843;28;20169;-85
2022/05/24 01:00:21;;;;;;;7.43;5.10;;;;;;;17.10;81.37;98890.31;5066257;28;20545;-83
2022/05/24 01:02:47;;;;;;;8.77;5.37;;;;;;;17.42;80.52;98922.16;5066186;28;20168;-83
2022/05/24 01:05:18;;;;;;;6.57;5.00;;;;;;;16.66;79.59;98779.97;5068671;28;20533;-82
2022/05/24 01:07:43;;;;;;;6.97;5.13;;;;;;;17.46;79.55;98916.25;5070885;28;20150;-82
2022/05/24 01:10:29;;;;;;;9.73;4.93;;;;;;;17.46;79.77;98910.25;5075096;28;20182;-83
2022/05/24 01:13:10;;;;;;;6.87;5.20;;;;;;;17.42;79.93;98913.63;5090738;28;20157;-83
2022/05/24 01:15:36;;;;;;;11.60;5.07;;;;;;;16.87;81.45;98850.88;5089724;28;20196;-83
2022/05/24 01:18:03;;;;;;;9.63;4.53;;;;;;;17.02;81.97;98894.50;5083367;28;20164;-83
2022/05/24 01:20:29;;;;;;;7.13;4.90;;;;;;;17.05;82.18;98918.41;5084240;28;20188;-83
2022/05/24 01:23:16;;;;;;;8.10;4.80;;;;;;;16.92;83.41;98918.28;5088798;28;20174;-82
2022/05/24 01:25:52;;;;;;;5.17;4.50;;;;;;;16.46;84.52;98846.16;5081728;28;20157;-83
2022/05/24 01:28:20;;;;;;;6.37;4.47;;;;;;;16.83;83.96;98915.63;5079114;28;20548;-82
2022/05/24 01:30:46;;;;;;;7.10;4.57;;;;;;;16.69;83.84;98882.22;5078446;28;20222;-82
2022/05/24 01:36:10;;;;;;;7.97;4.77;;;;;;;16.89;83.94;98923.34;5082970;28;20246;-83
2022/05/24 01:38:40;;;;;;;6.07;4.50;;;;;;;16.49;84.70;98866.63;5085349;28;20168;-83
2022/05/24 01:41:07;;;;;;;8.17;4.60;;;;;;;16.52;84.26;98870.91;5083351;28;20160;-83
2022/05/24 01:43:35;;;;;;;6.83;4.90;;;;;;;16.74;84.29;98907.84;5079544;28;20168;-83
2022/05/24 01:46:05;;;;;;;7.93;4.97;;;;;;;16.54;85.34;98894.81;5080850;28;20220;-84
2022/05/24 01:48:38;;;;;;;5.47;4.50;;;;;;;16.51;85.54;98880.28;5086217;28;20212;-84
2022/05/24 01:51:07;;;;;;;8.07;4.70;;;;;;;16.05;84.94;98786.06;5087791;28;20164;-84
2022/05/24 01:53:47;;;;;;;6.73;4.67;;;;;;;16.84;84.39;98920.72;5082138;28;20184;-83
2022/05/24 01:56:20;;;;;;;6.97;4.70;;;;;;;16.88;83.68;98911.41;5064800;28;20251;-83
2022/05/24 01:58:52;;;;;;;8.13;4.80;;;;;;;16.88;83.68;98919.94;5063705;28;20197;-82
2022/05/24 02:01:41;;;;;;;7.07;4.80;;;;;;;16.94;83.74;98917.44;5065273;28;20169;-83
2022/05/24 02:04:07;;;;;;;6.17;4.73;;;;;;;16.48;82.87;98838.53;5065570;28;20162;-83
2022/05/24 02:06:33;;;;;;;6.20;4.53;;;;;;;16.88;84.17;98925.06;5064758;28;20220;-84
2022/05/24 02:08:58;;;;;;;6.73;4.60;;;;;;;16.49;85.08;98889.63;5063751;28;20185;-84
2022/05/24 02:11:27;;;;;;;8.43;4.97;;;;;;;16.13;85.31;98812.56;5064018;28;20161;-83
2022/05/24 02:14:06;;;;;;;8.57;4.87;;;;;;;16.38;84.46;98837.53;5063191;28;20161;-84
2022/05/24 02:16:34;;;;;;;6.67;5.00;;;;;;;16.93;84.38;98943.84;5060638;28;20193;-84
2022/05/24 02:19:01;;;;;;;6.73;5.00;;;;;;;16.95;82.40;98938.75;5060664;28;20215;-85
2022/05/24 02:21:26;;;;;;;8.20;5.10;;;;;;;16.64;82.37;98871.09;5062789;28;20244;-85
2022/05/24 02:23:52;;;;;;;7.40;4.93;;;;;;;16.89;82.61;98928.47;5064490;28;20189;-83
2022/05/24 02:26:20;;;;;;;9.57;5.57;;;;;;;16.89;82.03;98934.41;5063183;28;20161;-84
2022/05/24 02:28:49;;;;;;;8.47;5.30;;;;;;;16.47;82.37;98875.13;5059009;28;20168;-85
2022/05/24 02:31:17;;;;;;;10.33;5.60;;;;;;;16.79;83.09;98937.72;5056554;28;20161;-85
2022/05/24 02:33:43;;;;;;;7.77;5.20;;;;;;;15.72;82.75;98755.88;5074718;28;20251;-85
2022/05/24 02:36:09;;;;;;;10.97;5.50;;;;;;;16.70;83.24;98935.03;5066503;28;20615;-84
2022/05/24 02:38:34;;;;;;;7.37;5.37;;;;;;;16.78;83.16;98945.38;5058737;28;20259;-84
2022/05/24 02:43:44;;;;;;;10.23;5.27;;;;;;;16.70;83.41;98947.81;5071253;28;20192;-85
2022/05/24 02:46:10;;;;;;;7.47;5.23;;;;;;;16.22;83.09;98852.66;5082348;28;20157;-83
2022/05/24 02:48:36;;;;;;;14.33;5.87;;;;;;;16.54;82.92;98899.94;5085109;28;20754;-83
2022/05/24 02:51:06;;;;;;;8.40;5.87;;;;;;;16.84;82.30;98951.41;5084613;28;20175;-84
2022/05/24 02:53:31;;;;;;;9.83;5.87;;;;;;;16.83;81.98;98952.28;5081600;28;20161;-83
2022/05/24 02:56:02;;;;;;;8.97;5.70;;;;;;;16.77;81.95;98921.50;5078436;28;20193;-84
2022/05/24 02:58:27;;;;;;;10.90;6.20;;;;;;;16.96;80.63;98950.69;5080698;28;20161;-82
2022/05/24 03:00:53;;;;;;;9.43;5.70;;;;;;;16.94;80.65;98948.13;5072119;28;20196;-82
2022/05/24 03:03:19;;;;;;;8.77;6.20;;;;;;;16.91;80.41;98967.69;5052528;28;20623;-83
2022/05/24 03:05:45;;;;;;;10.10;6.17;;;;;;;15.95;81.36;98814.88;5041350;28;20602;-86
2022/05/24 03:10:54;;;;;;;8.03;6.03;;;;;;;16.54;80.05;98910.16;5036116;28;20228;-84
2022/05/24 03:16:11;;;;;;;10.30;5.80;;;;;;;16.77;81.24;98970.09;5036033;28;20204;-85
2022/05/24 03:18:37;;;;;;;8.00;5.87;;;;;;;16.77;80.22;98941.97;5018105;28;20174;-84
2022/05/24 03:21:02;;;;;;;6.77;5.60;;;;;;;16.44;79.36;98872.53;5035519;28;20168;-84
2022/05/24 03:23:28;;;;;;;9.40;5.87;;;;;;;16.82;80.39;98958.22;5024196;28;20178;-84
2022/05/24 03:25:53;;;;;;;9.93;6.10;;;;;;;16.34;79.72;98870.72;5037023;28;20205;-84
2022/05/24 03:28:22;;;;;;;8.53;5.43;;;;;;;16.85;78.72;98942.91;5035058;28;20170;-85
2022/05/24 03:30:48;;;;;;;8.77;5.00;;;;;;;16.29;79.30;98846.78;5035249;28;20166;-84
2022/05/24 03:33:14;;;;;;;6.73;5.20;;;;;;;17.18;77.61;98956.91;5034896;28;20163;-84
2022/05/24 03:35:40;;;;;;;7.80;5.93;;;;;;;17.24;76.50;98969.75;5035944;28;20250;-84
2022/05/24 03:38:05;;;;;;;9.13;6.40;;;;;;;17.22;76.16;98974.00;5036767;28;20249;-83
2022/05/24 03:40:47;;;;;;;9.43;6.13;;;;;;;17.33;75.50;98975.81;5017301;28;20646;-83
2022/05/24 03:43:14;;;;;;;9.17;6.33;;;;;;;16.84;75.33;98867.03;5038958;28;20162;-83
2022/05/24 03:45:39;;;;;;;10.97;7.37;;;;;;;17.51;74.64;98964.91;5042390;28;20173;-84
2022/05/24 03:48:06;;;;;;;12.70;7.10;;;;;;;16.57;75.25;98843.75;5059202;28;20255;-84
2022/05/24 03:50:32;;;;;;;14.17;7.73;;;;;;;17.27;75.66;98972.34;5077891;28;20238;-84
2022/05/24 03:52:57;;;;;;;13.57;9.63;;;;;;;17.14;76.63;98973.91;5079712;28;20160;-83
2022/05/24 03:55:23;;;;;;;14.63;9.30;;;;;;;17.07;77.08;98975.56;5080978;28;20234;-84
2022/05/24 03:58:00;;;;;;;16.07;9.73;;;;;;;16.98;77.42;98957.53;5063694;28;20188;-84
2022/05/24 04:00:39;;;;;;;14.03;9.37;;;;;;;17.06;78.24;98983.19;5082368;28;20380;-84
2022/05/24 04:03:06;;;;;;;12.37;9.07;;;;;;;16.84;77.80;98953.97;5079890;28;20160;-84
2022/05/24 04:05:33;;;;;;;11.63;8.27;;;;;;;16.76;78.92;98958.13;5081444;28;20161;-85
2022/05/24 04:07:59;;;;;;;12.27;8.30;;;;;;;16.75;77.87;98925.75;5066226;28;20307;-85
2022/05/24 04:10:25;;;;;;;11.17;8.03;;;;;;;16.91;77.63;98940.44;5083671;28;20837;-84
2022/05/24 04:12:50;;;;;;;11.23;7.57;;;;;;;17.32;77.24;98980.91;5077338;28;20157;-84
2022/05/24 04:15:16;;;;;;;9.20;6.53;;;;;;;17.43;75.69;98989.56;5078967;28;20193;-85
2022/05/24 04:17:42;;;;;;;8.33;6.27;;;;;;;17.60;74.74;98990.63;5079471;28;20203;-84
2022/05/24 04:20:09;;;;;;;8.70;5.30;;;;;;;17.27;74.03;98955.31;5081269;28;20583;-84
2022/05/24 04:22:35;;;;;;;7.97;5.87;;;;;;;17.33;75.31;98968.13;5082262;28;20246;-84
2022/05/24 04:25:01;;;;;;;7.70;5.00;;;;;;;17.52;73.52;98964.94;5081671;28;20172;-83
2022/05/24 04:27:26;;;;;;;8.60;5.10;;;;;;;17.89;71.03;98976.34;5080479;28;20582;-84
2022/05/24 04:29:53;;;;;;;8.03;5.50;;;;;;;17.98;71.14;99001.19;5062775;28;20245;-84
2022/05/24 04:32:19;;;;;;;7.00;4.93;;;;;;;17.49;71.41;98928.22;5079860;28;20156;-83
2022/05/24 04:34:44;;;;;;;6.80;4.90;;;;;;;18.04;70.02;98991.84;5081389;28;20640;-83
2022/05/24 04:37:10;;;;;;;8.17;5.37;;;;;;;17.58;70.56;98923.16;5080250;28;20208;-84
2022/05/24 04:39:36;;;;;;;10.33;5.53;;;;;;;17.60;70.62;98895.91;5081165;28;20169;-85
2022/05/24 04:44:58;;;;;;;7.90;5.17;;;;;;;17.97;71.15;98969.56;5082950;28;20188;-81
2022/05/24 04:47:26;;;;;;;8.37;4.70;;;;;;;17.04;69.54;98781.16;5079149;28;20168;-84
2022/05/24 04:49:54;;;;;;;11.20;4.97;;;;;;;18.17;69.52;98983.41;5065010;28;20189;-84
2022/05/24 04:52:21;;;;;;;12.13;4.90;;;;;;;18.29;68.19;98959.56;5083792;28;20169;-83
2022/05/24 04:54:47;;;;;;;7.00;4.60;;;;;;;18.66;66.92;98986.25;5082122;28;20175;-83
2022/05/24 04:57:13;;;;;;;6.00;5.10;;;;;;;18.44;66.13;98902.38;5081878;28;20184;-85
2022/05/24 04:59:39;;;;;;;6.67;5.40;;;;;;;18.95;64.68;98924.81;5039125;28;20229;-83
2022/05/24 05:02:05;;;;;;;7.57;4.80;;;;;;;18.13;63.61;98781.81;5039412;28;20921;-84
2022/05/24 05:04:31;;;;;;;6.97;4.90;;;;;;;18.88;62.66;98857.25;5047248;28;20177;-83
2022/05/24 05:06:56;;;;;;;9.37;4.80;;;;;;;19.96;61.69;98995.16;5059670;28;20609;-84
2022/05/24 05:09:22;;;;;;;11.07;5.10;;;;;;;20.04;61.14;99008.00;5052215;28;20299;-83
2022/05/24 05:14:19;;;;;;;8.67;4.63;;;;;;;19.86;59.86;98977.19;5034739;28;20242;-83
2022/05/24 05:16:45;;;;;;;6.47;4.20;;;;;;;19.19;59.11;98835.91;5037319;28;20207;-83
2022/05/24 05:19:12;;;;;;;8.80;4.77;;;;;;;19.69;60.38;98995.16;5038435;28;20212;-82
2022/05/24 05:21:39;;;;;;;9.27;4.80;;;;;;;19.71;60.72;98982.31;5038476;28;20189;-84
2022/05/24 05:24:06;;;;;;;8.97;4.67;;;;;;;19.40;61.51;98946.31;5022057;28;20210;-82
2022/05/24 05:26:33;;;;;;;7.47;4.70;;;;;;;19.92;60.93;99000.28;5043082;28;20193;-84
2022/05/24 05:28:58;;;;;;;9.50;6.17;;;;;;;19.28;60.88;98878.69;5048640;28;20684;-85
2022/05/24 05:31:26;;;;;;;9.40;5.83;;;;;;;19.80;61.12;98984.88;5036212;28;20193;-82
2022/05/24 05:33:53;;;;;;;10.27;5.23;;;;;;;19.54;60.85;98932.63;5047422;28;20212;-84
2022/05/24 05:36:19;;;;;;;10.23;5.30;;;;;;;19.28;60.58;98892.38;5029092;28;20249;-84
2022/05/24 05:38:46;;;;;;;9.53;5.43;;;;;;;20.08;60.70;98994.28;5051024;28;20192;-82
2022/05/24 05:41:31;;;;;;;7.87;5.00;;;;;;;19.96;59.05;98925.78;5056179;28;20181;-82
2022/05/24 05:43:58;;;;;;;12.63;5.27;;;;;;;19.59;59.93;98883.00;5026832;28;20187;-84
2022/05/24 05:46:24;;;;;;;8.50;4.77;;;;;;;20.39;57.82;98996.00;5026866;28;20655;-82
2022/05/24 05:48:49;;;;;;;7.20;4.70;;;;;;;20.12;57.76;98930.88;5045162;28;20196;-83
2022/05/24 05:51:16;;;;;;;8.40;4.80;;;;;;;20.41;57.20;98999.41;5056338;28;20193;-84
2022/05/24 05:53:42;;;;;;;7.17;4.93;;;;;;;19.81;59.86;98999.41;5030008;28;20232;-85
2022/05/24 05:56:14;;;;;;;7.70;4.97;;;;;;;19.34;61.19;98984.78;5052538;28;20205;-85
2022/05/24 05:58:39;;;;;;;9.80;4.97;;;;;;;19.71;60.04;99005.41;5023405;28;20256;-83
2022/05/24 06:01:05;;;;;;;9.60;4.93;;;;;;;18.63;59.27;98804.19;5012276;28;20214;-83
2022/05/24 06:03:30;;;;;;;9.80;5.33;;;;;;;19.05;59.88;98891.50;5026444;28;20649;-84
2022/05/24 06:06:00;;;;;;;8.37;5.40;;;;;;;18.47;58.78;98776.78;5052017;28;20189;-85
2022/05/24 06:08:25;;;;;;;6.17;5.20;;;;;;;19.83;59.89;99013.16;5039375;28;20192;-84
2022/05/24 06:10:51;;;;;;;10.90;5.43;;;;;;;19.65;59.38;99019.09;5022871;28;20181;-84
2022/05/24 06:13:17;;;;;;;7.27;4.93;;;;;;;20.05;58.25;99022.56;5025675;28;20226;-83
2022/05/24 06:15:43;;;;;;;8.63;4.93;;;;;;;19.83;57.57;98962.59;5022201;28;20214;-84
2022/05/24 06:18:09;;;;;;;11.37;4.77;;;;;;;20.72;56.33;99014.75;5008106;28;20234;-84
2022/05/24 06:20:34;;;;;;;10.70;4.80;;;;;;;20.69;55.96;99010.47;5034850;28;20275;-84
2022/05/24 06:22:59;;;;;;;10.87;5.23;;;;;;;20.72;56.31;99007.03;5032726;28;20182;-83
2022/05/24 06:25:27;;;;;;;10.50;4.90;;;;;;;20.86;55.78;99008.72;5032258;28;20193;-83
2022/05/24 06:27:54;;;;;;;10.80;5.00;;;;;;;20.99;55.71;99020.66;5029630;28;20638;-84
2022/05/24 06:30:21;;;;;;;7.50;4.93;;;;;;;21.02;55.31;99027.50;5036226;28;20197;-84
2022/05/24 06:32:50;;;;;;;7.77;4.70;;;;;;;20.86;55.59;99007.84;5033697;28;20600;-82
2022/05/24 06:35:16;;;;;;;8.27;4.83;;;;;;;21.56;54.64;99019.53;5018679;28;20185;-83
2022/05/24 06:37:42;;;;;;;8.70;4.67;;;;;;;21.22;52.69;98899.59;5032221;28;20245;-82
2022/05/24 06:40:10;;;;;;;6.13;4.63;;;;;;;21.52;52.89;98974.06;5033106;28;20196;-82
2022/05/24 06:42:35;;;;;;;8.50;4.80;;;;;;;21.87;51.59;98957.50;5032011;28;20185;-82
2022/05/24 06:45:01;;;;;;;8.93;5.07;;;;;;;21.88;51.72;99008.19;5007271;28;20265;-81
2022/05/24 06:47:27;;;;;;;7.90;5.50;;;;;;;21.87;52.43;99019.34;5031987;28;20196;-84
2022/05/24 06:49:54;;;;;;;6.07;4.60;;;;;;;21.13;52.87;98891.91;5030044;28;20247;-82
2022/05/24 06:52:20;;;;;;;9.50;5.40;;;;;;;21.47;52.96;98980.97;5030889;28;20235;-81
2022/05/24 06:54:46;;;;;;;7.03;5.40;;;;;;;21.40;52.04;98955.28;5012426;28;20218;-85
2022/05/24 06:57:11;;;;;;;10.33;5.17;;;;;;;21.57;51.19;98920.78;5033206;28;20241;-85
2022/05/24 07:02:27;;;;;;;6.87;5.17;;;;;;;21.55;51.84;98942.28;5014021;28;20229;-82
2022/05/24 07:05:07;;;;;;;6.43;5.20;;;;;;;22.02;51.36;99020.09;5004306;28;20179;-80
2022/05/24 07:07:35;;;;;;;9.03;5.30;;;;;;;21.89;51.49;99007.31;5027637;28;20189;-82
2022/05/24 07:10:02;;;;;;;7.10;5.70;;;;;;;21.75;51.88;98997.91;5031191;28;20268;-80
2022/05/24 07:12:27;;;;;;;8.20;5.97;;;;;;;21.49;52.41;98999.84;5030285;28;20248;-82
2022/05/24 07:14:53;;;;;;;9.17;5.70;;;;;;;21.80;51.61;98968.69;5021618;28;20205;-83
2022/05/24 07:17:20;;;;;;;9.97;5.30;;;;;;;22.28;51.25;98976.00;5031418;28;20682;-81
2022/05/24 07:19:46;;;;;;;8.47;5.53;;;;;;;22.79;50.00;98990.13;5015489;28;20585;-83
2022/05/24 07:22:13;;;;;;;11.63;5.50;;;;;;;22.48;50.34;99004.19;5013967;28;20186;-81
2022/05/24 07:24:39;;;;;;;6.60;5.50;;;;;;;21.73;50.12;98864.81;5027227;28;20270;-82
2022/05/24 07:27:09;;;;;;;10.00;5.40;;;;;;;22.60;49.08;98961.06;5032120;28;20186;-82
2022/05/24 07:29:35;;;;;;;9.67;5.63;;;;;;;22.23;50.30;99001.00;5003815;28;20238;-84
2022/05/24 07:32:01;;;;;;;11.97;6.10;;;;;;;21.90;50.13;98934.28;5018561;28;20182;-82
2022/05/24 07:34:26;;;;;;;9.97;5.63;;;;;;;22.33;50.74;99005.22;5026994;28;20189;-81
2022/05/24 07:36:52;;;;;;;9.43;5.43;;;;;;;22.73;50.30;99005.66;5008647;28;20919;-82
2022/05/24 07:39:18;;;;;;;7.73;5.10;;;;;;;22.83;49.63;99002.09;5018694;28;20197;-81
2022/05/24 07:47:11;;;;;;;11.03;5.53;;;;;;;22.85;47.87;98949.56;5031176;28;20201;-84
2022/05/24 07:49:37;;;;;;;10.97;6.90;;;;;;;23.25;47.92;99005.88;5027627;28;20193;-82
2022/05/24 07:52:04;;;;;;;7.70;5.93;;;;;;;22.41;48.94;98946.66;5028899;28;20553;-82
2022/05/24 07:54:33;;;;;;;9.43;5.37;;;;;;;22.23;49.44;98939.09;5009205;28;20188;-83
2022/05/24 07:56:59;;;;;;;11.10;5.80;;;;;;;22.96;49.42;99000.25;5010137;28;20605;-83
2022/05/24 07:59:24;;;;;;;10.83;5.70;;;;;;;23.31;48.89;99001.50;4995673;28;20254;-82
2022/05/24 08:01:50;;;;;;;11.87;6.80;;;;;;;23.89;47.19;98998.06;5009640;28;20191;-83
2022/05/24 08:04:16;;;;;;;7.67;6.23;;;;;;;23.98;47.28;99005.69;5022370;28;20269;-82
2022/05/24 08:06:41;;;;;;;13.90;7.23;;;;;;;24.34;45.75;99004.19;5030861;28;20650;-82
2022/05/24 08:09:07;;;;;;;8.73;5.23;;;;;;;23.60;46.87;98949.41;5028224;28;20182;-83
2022/05/24 08:11:32;;;;;;;11.70;5.97;;;;;;;23.85;47.03;98966.22;5015058;28;20278;-82
2022/05/24 08:13:59;;;;;;;13.80;5.60;;;;;;;23.70;46.38;98942.38;5015117;28;20229;-81
2022/05/24 08:16:27;;;;;;;15.47;6.00;;;;;;;23.05;47.28;98901.97;5019674;28;20296;-82
2022/05/24 08:18:53;;;;;;;13.13;7.03;;;;;;;23.85;46.44;98967.94;5016000;28;20357;-82
2022/05/24 08:21:19;;;;;;;12.33;6.33;;;;;;;24.05;46.73;98987.44;5024558;28;20205;-81
2022/05/24 08:23:45;;;;;;;11.43;6.03;;;;;;;24.59;45.51;98984.75;5022391;28;20198;-82
2022/05/24 08:26:10;;;;;;;10.33;5.70;;;;;;;24.47;45.13;98936.69;5019265;28;20202;-84
2022/05/24 08:28:36;;;;;;;12.33;6.00;;;;;;;23.69;45.04;98780.38;5012816;28;20191;-81
2022/05/24 08:31:01;;;;;;;8.97;5.37;;;;;;;24.36;45.73;98922.25;5011245;28;20191;-82
2022/05/24 08:33:28;;;;;;;8.83;5.97;;;;;;;24.56;44.71;98901.97;5013965;28;20186;-83
2022/05/24 08:35:54;;;;;;;9.27;5.43;;;;;;;24.82;44.32;98919.59;5019814;28;20214;-83
2022/05/24 08:38:21;;;;;;;9.13;5.27;;;;;;;24.98;44.72;98946.88;4996440;28;20186;-83
2022/05/24 08:40:48;;;;;;;8.30;5.80;;;;;;;24.83;44.75;98954.97;5023627;28;20216;-81
2022/05/24 08:43:41;;;;;;;7.97;5.50;;;;;;;24.60;45.02;98939.88;5025142;28;20185;-81
2022/05/24 08:49:06;;;;;;;10.07;5.50;;;;;;;24.89;44.16;98968.63;5022443;28;20285;-83
2022/05/24 08:51:47;;;;;;;12.57;5.43;;;;;;;25.06;43.24;98971.72;5023843;28;20232;-82
2022/05/24 08:54:16;;;;;;;7.90;4.67;;;;;;;25.42;42.36;98954.50;5018597;28;20193;-83
2022/05/24 08:56:50;;;;;;;7.43;4.97;;;;;;;25.77;42.27;98983.09;5024613;28;20574;-81
2022/05/24 08:59:25;;;;;;;10.17;5.23;;;;;;;25.27;42.76;98985.97;5008699;28;20230;-82
2022/05/24 09:01:50;;;;;;;9.23;4.83;;;;;;;24.55;43.99;98949.47;5010194;28;20186;-83
2022/05/24 09:04:16;;;;;;;7.40;4.73;;;;;;;23.87;43.62;98863.63;4990777;28;20192;-83
2022/05/24 09:06:43;;;;;;;8.80;5.20;;;;;;;25.01;42.63;98967.53;5010745;28;20192;-83
2022/05/24 09:09:33;;;;;;;9.50;5.10;;;;;;;25.08;43.23;98967.38;5016302;28;20221;-83
2022/05/24 09:12:08;;;;;;;8.13;4.70;;;;;;;25.06;43.46;98960.50;5026657;28;20189;-83
2022/05/24 09:14:47;;;;;;;7.37;4.37;;;;;;;24.63;43.60;98913.94;5020066;28;20189;-83
2022/05/24 09:17:49;;;;;;;7.17;5.10;;;;;;;24.65;44.59;98969.09;5049045;28;20209;-83
2022/05/24 09:20:38;;;;;;;6.97;4.97;;;;;;;25.16;43.15;98975.81;5033274;28;20205;-83
2022/05/24 09:23:18;;;;;;;7.63;5.10;;;;;;;25.29;43.45;98978.16;5030944;28;20197;-83
2022/05/24 09:26:08;;;;;;;6.57;4.50;;;;;;;25.87;41.42;98920.63;5038837;28;20256;-83
2022/05/24 09:28:53;;;;;;;6.57;4.60;;;;;;;26.12;41.57;98974.41;5029724;28;20631;-82
2022/05/24 09:31:28;;;;;;;7.27;4.63;;;;;;;26.12;41.48;98981.38;5036713;28;20189;-83
2022/05/24 09:33:58;;;;;;;5.90;4.40;;;;;;;24.90;42.38;98900.44;5039250;28;20199;-83
2022/05/24 09:36:40;;;;;;;9.00;4.43;;;;;;;25.24;42.45;98979.09;5047541;28;20210;-82
2022/05/24 09:39:30;;;;;;;7.23;4.60;;;;;;;25.79;41.36;98977.88;5034543;28;20205;-84
2022/05/24 09:42:24;;;;;;;8.00;4.50;;;;;;;25.18;42.10;98968.88;5023113;28;20631;-82
2022/05/24 09:45:00;;;;;;;7.73;4.60;;;;;;;25.00;42.94;98956.31;4929784;29;20225;-82
2022/05/24 09:47:38;;;;;;;7.97;4.53;;;;;;;24.91;43.71;98946.19;4931586;29;20192;-83
2022/05/24 09:50:20;;;;;;;13.03;5.00;;;;;;;25.57;42.78;98955.94;4929664;29;20213;-83
2022/05/24 09:53:22;;;;;;;8.70;5.20;;;;;;;25.76;41.80;98955.47;4930583;29;20181;-83
2022/05/24 09:55:59;;;;;;;10.23;5.60;;;;;;;25.85;41.04;98938.78;4929797;29;20965;-83
2022/05/24 09:58:32;;;;;;;11.10;5.10;;;;;;;25.67;41.22;98902.97;4925201;29;20346;-84
2022/05/24 10:01:07;;;;;;;6.73;4.97;;;;;;;26.05;41.52;98954.72;4939515;29;22172;-82
2022/05/24 10:03:32;;;;;;;8.37;5.00;;;;;;;25.82;42.13;98951.00;4911436;29;20233;-82
2022/05/24 10:06:26;;;;;;;5.60;4.50;;;;;;;25.80;41.86;98951.88;4919261;29;20220;-83
2022/05/24 10:09:10;;;;;;;8.47;4.90;;;;;;;26.12;41.30;98939.84;4873787;29;20690;-83
2022/05/24 10:11:47;;;;;;;10.23;5.27;;;;;;;25.81;41.02;98895.69;4871342;29;20192;-82
2022/05/24 10:14:40;;;;;;;9.73;5.23;;;;;;;25.94;41.81;98938.56;4890419;29;20301;-82
2022/05/24 10:17:23;;;;;;;6.07;4.80;;;;;;;25.74;42.70;98941.66;4882109;29;20225;-83
2022/05/24 10:20:07;;;;;;;7.30;4.90;;;;;;;25.86;42.75;98948.28;4882001;29;20229;-82
2022/05/24 10:22:35;;;;;;;9.00;5.60;;;;;;;26.00;41.79;98954.00;4922940;29;20237;-82
2022/05/24 10:25:39;;;;;;;8.83;5.13;;;;;;;26.38;41.04;98953.88;4935224;29;20263;-82
2022/05/24 10:28:18;;;;;;;9.18;5.45;;;;;;;26.05;40.60;98869.09;4932138;29;20200;-82
2022/05/24 10:30:49;;;;;;;7.43;5.40;;;;;;;27.06;40.25;98951.06;4929854;29;20194;-82
2022/05/24 10:39:14;;;;;;;7.07;5.30;;;;;;;27.45;39.55;98930.84;4939411;29;20640;-82
2022/05/24 10:41:52;;;;;;;11.13;5.60;;;;;;;27.51;38.85;98896.84;4931736;29;20198;-82
2022/05/24 10:44:24;;;;;;;7.53;5.28;;;;;;;27.97;38.02;98883.13;4929591;29;20192;-82
2022/05/24 10:47:01;;;;;;;8.18;5.25;;;;;;;27.98;37.98;98910.84;5011742;28;20555;-83
2022/05/24 10:50:09;;;;;;;7.00;5.20;;;;;;;28.14;37.79;98919.00;5019906;28;20726;-83
2022/05/24 10:52:42;;;;;;;8.90;4.80;;;;;;;28.15;37.69;98911.16;4962122;28;20776;-82
2022/05/24 10:55:14;;;;;;;6.72;4.80;;;;;;;28.18;37.55;98907.59;4954155;28;20712;-82
2022/05/24 10:57:48;;;;;;;7.40;4.85;;;;;;;27.94;37.96;98904.91;4948718;29;20730;-83
2022/05/24 11:00:18;;;;;;;10.65;4.75;;;;;;;28.26;37.29;98903.81;4927354;28;20263;-83
2022/05/24 11:02:52;;;;;;;5.55;4.60;;;;;;;28.06;37.23;98896.72;4941045;29;20230;-83
2022/05/24 11:05:32;;;;;;;7.93;4.85;;;;;;;27.27;39.02;98882.84;4943527;29;20200;-82
2022/05/24 11:08:15;;;;;;;6.88;4.55;;;;;;;27.34;39.87;98896.50;4953247;28;20230;-82
2022/05/24 11:10:46;;;;;;;7.47;4.50;;;;;;;26.79;39.10;98764.84;4956685;28;20208;-82
2022/05/24 11:13:15;;;;;;;7.15;4.57;;;;;;;27.15;40.04;98888.41;4959514;28;20743;-82
2022/05/24 11:16:05;;;;;;;7.57;4.93;;;;;;;27.91;38.59;98872.91;4957588;28;20233;-82
2022/05/24 11:18:31;;;;;;;8.82;4.78;;;;;;;28.13;38.57;98855.69;4964565;28;20278;-82
2022/05/24 11:21:11;;;;;;;8.27;4.70;;;;;;;28.04;38.26;98853.41;4979030;28;20255;-82
2022/05/24 11:23:46;;;;;;;8.75;4.88;;;;;;;27.67;37.98;98804.38;4997201;28;20216;-82
2022/05/24 11:26:24;;;;;;;6.30;4.60;;;;;;;27.81;38.67;98812.56;5017665;28;21050;-83
2022/05/24 11:28:58;;;;;;;6.10;4.63;;;;;;;28.22;37.74;98842.34;5013416;28;20254;-83
2022/05/24 11:31:40;;;;;;;11.50;4.82;;;;;;;27.56;37.84;98769.22;5015320;28;20183;-86
2022/05/24 11:34:26;;;;;;;6.15;4.68;;;;;;;28.82;37.30;98846.16;5011431;28;20201;-85
2022/05/24 11:37:29;;;;;;;9.13;4.88;;;;;;;29.50;36.03;98854.72;5012114;28;20225;-84
2022/05/24 11:39:55;;;;;;;6.85;4.78;;;;;;;29.96;35.55;98855.41;4958490;28;20766;-83
2022/05/24 11:42:41;;;;;;;9.25;4.65;;;;;;;29.44;36.26;98805.44;4950685;29;20207;-83
2022/05/24 11:45:28;;;;;;;6.10;4.30;;;;;;;30.32;35.17;98864.25;4952793;28;20216;-81
2022/05/24 11:48:06;;;;;;;8.32;4.85;;;;;;;30.83;34.48;98872.34;4963559;28;20286;-82
2022/05/24 11:50:31;;;;;;;5.20;4.45;;;;;;;31.28;34.23;98887.66;4954657;28;20196;-82
2022/05/24 11:53:02;;;;;;;7.18;4.30;;;;;;;32.01;33.26;98882.28;4951524;28;20679;-83
2022/05/24 11:55:43;;;;;;;9.65;4.68;;;;;;;32.25;33.44;98895.03;4962980;28;20536;-84
2022/05/24 11:58:21;;;;;;;8.50;5.07;;;;;;;31.64;34.17;98892.91;4956939;28;20200;-83
2022/05/24 12:00:58;;;;;;;6.68;4.43;;;;;;;31.81;34.01;98892.88;4939895;28;20692;-83
2022/05/24 12:09:15;;;;;;;6.82;4.70;;;;;;;31.37;35.08;98887.19;4952806;28;20737;-82
2022/05/24 12:11:40;;;;;;;6.80;4.70;;;;;;;29.28;37.57;98853.94;4958331;28;20193;-84
2022/05/24 12:14:15;;;;;;;7.32;5.30;;;;;;;28.79;38.65;98899.25;4992241;28;20243;-81
2022/05/24 12:16:46;;;;;;;7.30;5.10;;;;;;;28.39;39.27;98863.41;5018714;28;20692;-80
2022/05/24 12:19:43;;;;;;;6.03;5.20;;;;;;;28.98;39.70;98902.84;5022660;28;20186;-83
2022/05/24 12:22:11;;;;;;;9.38;5.57;;;;;;;29.16;39.25;98833.50;5009266;28;20186;-82
2022/05/24 12:24:36;;;;;;;6.30;5.30;;;;;;;29.89;38.60;98896.59;5009635;28;20192;-82
2022/05/24 12:27:35;;;;;;;7.65;4.90;;;;;;;30.03;37.70;98899.47;5010939;28;20182;-80